Historique des mesures à Cassis (13260), France
Quotidien Résumé Mai 22, 2017 Unités:  US    Métrique   Métrique/US
« Précédent (Jour)
Suivant (Jour) »
Quotidien Hebdomadaire Mensuel Annuel Période au choix
  Maximum: Minimum: Moyenne:
Température: 32 °F 58.3 °F 65.3 °F
Point de rosée: 32 °F 44.1 °F 48.9 °F
Humidité: Humidity % 43 % 53 %
Vitesse du vent: WindSpeedKMH mph 0.0 mph 1.9 mph
Rafales: WindSpeedGustKMH mph - -
Vent:- - South
Pression: 0 in 30 in -
Précipitations: 0 in    
Historical Graphs
 
 
Mesures pour : Mai 22, 2017
Heure Temperature Point de rosée Pression Vent Vitesse du vent Rafales Humidité Pluie (par heure) Conditions
32 °F 32 °F 0 in Calm     Humidity % 0 in SoftwareType W/m2
00:10 62.8 °F 49.5 °F 30 in Calm   2.1 mph 62 % 0 in open2300-1.11 W/m2
01:10 61.9 °F 47.8 °F 30 in Calm     60 % 0 in open2300-1.11 W/m2
02:10 61 °F 47.1 °F 30 in Calm   1.4 mph 60 % 0 in open2300-1.11 W/m2
03:10 59.7 °F 46.8 °F 30 in Calm     62 % 0 in open2300-1.11 W/m2
04:10 59.2 °F 46.9 °F 30 in Calm     64 % 0 in open2300-1.11 W/m2
05:10 58.8 °F 46.6 °F 30 in Calm     64 % 0 in open2300-1.11 W/m2
06:10 58.3 °F 45 °F 30 in NE 2.1 mph 3.5 mph 61 % 0 in open2300-1.11 W/m2
07:10 61.9 °F 44.1 °F 30 in NW 4.7 mph 4.7 mph 52 % 0 in open2300-1.11 W/m2
08:10 66.7 °F 48.6 °F 30 in Calm     52 % 0 in open2300-1.11 W/m2
09:10 67.3 °F 50.5 °F 30 in ESE 2.6 mph 4.0 mph 55 % 0 in open2300-1.11 W/m2
10:10 67.6 °F 51.8 °F 30 in SE 1.1 mph 1.1 mph 57 % 0 in open2300-1.11 W/m2
11:10 67.3 °F 53.1 °F 30 in NNW 1.4 mph 2.1 mph 60 % 0 in open2300-1.11 W/m2
12:10 70.5 °F 54 °F 30 in SSW 4.7 mph 6.4 mph 56 % 0 in open2300-1.11 W/m2
13:10 71.6 °F 55 °F 30 in SE 3.5 mph 3.5 mph 56 % 0 in open2300-1.11 W/m2
14:10 72.1 °F 55.9 °F 30 in SSE 2.9 mph 4.0 mph 57 % 0 in open2300-1.11 W/m2
15:10 73.2 °F 51.1 °F 30 in SE 1.1 mph 1.1 mph 46 % 0 in open2300-1.11 W/m2
16:10 75.4 °F 53.1 °F 30 in SSE 5.0 mph 8.7 mph 46 % 0 in open2300-1.11 W/m2
17:11 74.8 °F 50.7 °F 30 in SE 5.0 mph 9.7 mph 43 % 0 in open2300-1.11 W/m2
18:10 73.8 °F 51.6 °F 30 in West 3.2 mph 3.2 mph 46 % 0 in open2300-1.11 W/m2
19:10 70.9 °F 53.2 °F 30 in SE 2.1 mph 6.1 mph 54 % 0 in open2300-1.11 W/m2
20:10 68.9 °F 51.1 °F 30 in Calm   1.4 mph 53 % 0 in open2300-1.11 W/m2
21:10 66.4 °F 47.8 °F 30 in WNW 5.5 mph 9.3 mph 51 % 0 in open2300-1.11 W/m2
22:10 64.9 °F 44.8 °F 30 in Calm   2.6 mph 48 % 0 in open2300-1.11 W/m2
23:10 64.6 °F 44.2 °F 30 in North 2.6 mph 8.7 mph 48 % 0 in open2300-1.11 W/m2
Observations météo à CASSIS
WU-History script by Weather Underground - 1 mb